createdAt,value
2023-05-12T00:00:02.789Z,78.90
2023-05-12T00:05:09.874Z,79.40
2023-05-12T00:10:16.914Z,79.40
2023-05-12T00:15:22.429Z,80.20
2023-05-12T00:20:27.832Z,81.00
2023-05-12T00:25:35.422Z,81.70
2023-05-12T00:30:41.664Z,82.10
2023-05-12T00:35:46.837Z,83.10
2023-05-12T00:40:51.995Z,83.40
2023-05-12T00:45:58.626Z,84.70
2023-05-12T00:51:06.667Z,85.60
2023-05-12T00:56:12.733Z,85.00
2023-05-12T01:01:19.823Z,85.50
2023-05-12T01:06:34.544Z,86.00
2023-05-12T01:11:39.773Z,88.10
2023-05-12T01:16:51.708Z,88.50
2023-05-12T01:21:58.589Z,89.10
2023-05-12T01:27:04.506Z,89.90
2023-05-12T01:32:10.819Z,90.70
2023-05-12T01:37:18.748Z,91.10
2023-05-12T01:42:24.069Z,91.50
2023-05-12T01:47:29.202Z,92.20
2023-05-12T01:52:35.564Z,93.60
2023-05-12T01:57:43.740Z,94.50
2023-05-12T02:02:55.594Z,96.00
2023-05-12T02:08:02.120Z,97.90
2023-05-12T02:13:07.521Z,99.00
2023-05-12T02:18:12.718Z,99.90
2023-05-12T02:23:17.964Z,99.90
2023-05-12T02:28:23.097Z,99.90
2023-05-12T02:33:30.435Z,99.90
2023-05-12T02:38:41.948Z,99.90
2023-05-12T02:43:47.355Z,99.90
2023-05-12T02:48:52.572Z,99.90
2023-05-12T02:53:58.831Z,99.90
2023-05-12T02:59:05.469Z,99.90
2023-05-12T03:04:13.450Z,99.90
2023-05-12T03:09:19.691Z,99.90
2023-05-12T03:14:29.240Z,99.90
2023-05-12T03:19:37.580Z,99.90
2023-05-12T03:24:45.821Z,99.90
2023-05-12T03:29:54.672Z,99.90
2023-05-12T03:35:00.612Z,99.90
2023-05-12T03:40:10.437Z,99.90
2023-05-12T03:45:20.732Z,99.90
2023-05-12T03:50:28.714Z,99.90
2023-05-12T03:55:35.509Z,99.90
2023-05-12T04:00:44.272Z,99.90
2023-05-12T04:05:53.210Z,99.90
2023-05-12T04:11:02.242Z,99.90
2023-05-12T04:16:16.307Z,99.90
2023-05-12T04:21:24.026Z,99.90
2023-05-12T04:26:38.331Z,99.90
2023-05-12T04:31:46.804Z,99.90
2023-05-12T04:37:08.773Z,99.90
2023-05-12T04:42:16.906Z,99.90
2023-05-12T04:47:24.436Z,99.90
2023-05-12T04:52:38.387Z,99.90
2023-05-12T04:57:53.558Z,98.60
2023-05-12T05:03:11.554Z,98.40
2023-05-12T05:08:36.761Z,96.40
2023-05-12T05:13:51.007Z,95.20
2023-05-12T05:18:58.849Z,92.30
2023-05-12T05:24:23.953Z,90.90
2023-05-12T05:29:49.585Z,92.40
2023-05-12T05:35:05.308Z,86.20
2023-05-12T05:40:11.861Z,85.00
2023-05-12T05:45:21.217Z,82.60
2023-05-12T05:50:34.642Z,79.90
2023-05-12T05:55:45.169Z,78.90
2023-05-12T06:00:54.378Z,75.00
2023-05-12T06:06:00.060Z,72.90
2023-05-12T06:11:15.847Z,72.80
2023-05-12T06:16:33.485Z,73.40
2023-05-12T06:21:43.113Z,68.00
2023-05-12T06:26:50.066Z,68.00
2023-05-12T06:37:40.162Z,64.70
2023-05-12T06:48:34.884Z,61.40
2023-05-12T06:53:45.826Z,61.50
2023-05-12T06:58:52.544Z,59.20
2023-05-12T07:04:02.225Z,58.70
2023-05-12T07:09:07.454Z,58.70
2023-05-12T07:14:13.982Z,57.40
2023-05-12T07:19:19.386Z,56.70
2023-05-12T07:24:26.006Z,56.10
2023-05-12T07:29:31.257Z,55.00
2023-05-12T07:34:40.086Z,52.90
2023-05-12T07:39:46.377Z,53.20
2023-05-12T07:44:51.587Z,52.00
2023-05-12T07:49:56.724Z,50.70
2023-05-12T07:55:01.951Z,50.10
2023-05-12T08:00:08.488Z,48.80
2023-05-12T08:05:14.948Z,49.70
2023-05-12T08:10:20.289Z,48.10
2023-05-12T08:15:25.944Z,46.70
2023-05-12T08:20:32.311Z,43.80
2023-05-12T08:25:37.747Z,43.90
2023-05-12T08:30:45.297Z,42.80
2023-05-12T08:35:51.135Z,41.20
2023-05-12T08:40:59.903Z,43.00
2023-05-12T08:46:06.691Z,41.00
2023-05-12T08:51:17.014Z,40.30
2023-05-12T09:01:36.633Z,38.10
2023-05-12T09:06:41.478Z,38.40
2023-05-12T09:11:48.386Z,39.70
2023-05-12T09:16:58.322Z,39.50
2023-05-12T09:22:04.563Z,39.40
2023-05-12T09:27:10.242Z,38.00
2023-05-12T09:32:16.137Z,38.00
2023-05-12T09:37:26.053Z,37.20
2023-05-12T09:42:34.807Z,38.30
2023-05-12T09:47:41.297Z,37.50
2023-05-12T09:52:46.576Z,36.00
2023-05-12T09:57:52.600Z,35.20
2023-05-12T10:02:58.578Z,36.10
2023-05-12T10:08:07.007Z,37.00
2023-05-12T10:13:16.487Z,36.10
2023-05-12T10:18:22.805Z,35.00
2023-05-12T10:23:32.302Z,37.30
2023-05-12T10:28:37.523Z,35.50
2023-05-12T10:33:43.154Z,34.10
2023-05-12T10:38:51.432Z,35.30
2023-05-12T10:43:58.967Z,34.90
2023-05-12T10:49:11.284Z,36.90
2023-05-12T10:54:25.075Z,34.70
2023-05-12T10:59:30.754Z,35.80
2023-05-12T11:05:04.818Z,35.80
2023-05-12T11:10:17.682Z,36.30
2023-05-12T11:15:26.550Z,34.90
2023-05-12T11:20:32.842Z,35.10
2023-05-12T11:25:38.092Z,34.30
2023-05-12T11:30:55.021Z,36.00
2023-05-12T11:35:59.718Z,34.20
2023-05-12T11:41:04.995Z,34.20
2023-05-12T11:46:10.306Z,35.30
2023-05-12T11:51:17.123Z,36.70
2023-05-12T11:56:27.336Z,35.70
2023-05-12T12:01:34.828Z,35.90
2023-05-12T12:07:01.495Z,35.80
2023-05-12T12:12:09.809Z,35.80
2023-05-12T12:17:16.892Z,37.00
2023-05-12T12:22:22.151Z,35.10
2023-05-12T12:27:32.763Z,34.40
2023-05-12T12:32:44.685Z,35.60
2023-05-12T12:38:04.236Z,35.40
2023-05-12T12:43:14.812Z,35.60
2023-05-12T12:48:25.412Z,36.70
2023-05-12T12:53:37.881Z,35.20
2023-05-12T12:58:45.498Z,35.70
2023-05-12T13:03:54.447Z,35.90
2023-05-12T13:09:00.941Z,35.60
2023-05-12T13:14:08.673Z,34.30
2023-05-12T13:19:16.622Z,35.40
2023-05-12T13:24:21.915Z,34.10
2023-05-12T13:29:28.352Z,33.90
2023-05-12T13:34:35.802Z,33.70
2023-05-12T13:39:40.896Z,34.80
2023-05-12T13:44:56.628Z,32.90
2023-05-12T15:12:42.509Z,32.80
2023-05-12T15:17:47.961Z,34.70
2023-05-12T15:22:54.956Z,32.90
2023-05-12T15:28:00.169Z,33.30
2023-05-12T15:33:06.257Z,33.60
2023-05-12T15:38:11.490Z,33.80
2023-05-12T15:43:16.833Z,33.60
2023-05-12T15:48:21.983Z,33.00
2023-05-12T15:53:39.213Z,33.70
2023-05-12T15:58:45.334Z,34.70
2023-05-12T16:03:54.664Z,35.00
2023-05-12T16:09:00.307Z,34.70
2023-05-12T16:14:05.839Z,34.00
2023-05-12T16:19:12.176Z,33.80
2023-05-12T16:24:18.078Z,34.80
2023-05-12T16:29:23.274Z,33.50
2023-05-12T16:34:28.962Z,33.50
2023-05-12T16:39:35.724Z,34.10
2023-05-12T16:44:41.192Z,34.70
2023-05-12T16:49:46.350Z,35.50
2023-05-12T16:54:58.989Z,36.50
2023-05-12T17:00:07.038Z,36.10
2023-05-12T17:05:12.504Z,36.30
2023-05-12T17:10:17.778Z,35.80
2023-05-12T17:15:23.725Z,35.90
2023-05-12T17:20:29.363Z,36.30
2023-05-12T17:25:34.953Z,36.60
2023-05-12T17:30:40.227Z,36.60
2023-05-12T17:35:51.492Z,36.80
2023-05-12T17:40:52.754Z,37.70
2023-05-12T17:45:59.853Z,37.20
2023-05-12T17:51:05.672Z,37.30
2023-05-12T17:56:11.568Z,37.80
2023-05-12T18:01:17.254Z,37.60
2023-05-12T18:06:22.600Z,37.90
2023-05-12T18:11:36.461Z,37.70
2023-05-12T18:16:42.641Z,38.60
2023-05-12T18:21:52.778Z,39.00
2023-05-12T18:26:57.862Z,39.20
2023-05-12T18:32:04.343Z,40.10
2023-05-12T18:37:11.149Z,40.30
2023-05-12T18:42:25.407Z,41.10
2023-05-12T18:47:30.788Z,42.30
2023-05-12T18:52:36.412Z,42.60
2023-05-12T18:57:44.908Z,43.70
2023-05-12T19:02:51.719Z,46.20
2023-05-12T19:07:57.304Z,47.60
2023-05-12T19:13:02.378Z,48.10
2023-05-12T19:18:11.036Z,48.50
2023-05-12T19:23:16.472Z,49.30
2023-05-12T19:28:21.735Z,49.60
2023-05-12T19:33:34.907Z,50.30
2023-05-12T19:38:41.734Z,51.30
2023-05-12T19:43:48.387Z,53.00
2023-05-12T19:48:53.761Z,53.40
2023-05-12T19:53:59.675Z,54.70
2023-05-12T19:59:07.282Z,54.90
2023-05-12T20:04:15.277Z,54.90
2023-05-12T20:09:22.324Z,56.40
2023-05-12T20:14:27.519Z,56.60
2023-05-12T20:19:34.530Z,56.60
2023-05-12T20:24:39.791Z,57.90
2023-05-12T20:29:45.112Z,59.10
2023-05-12T20:34:50.349Z,59.30
2023-05-12T20:39:55.868Z,61.00
2023-05-12T20:45:01.291Z,61.90
2023-05-12T20:50:08.029Z,62.50
2023-05-12T20:55:13.200Z,63.30
2023-05-12T21:00:18.643Z,64.30
2023-05-12T21:05:24.923Z,65.20
2023-05-12T21:10:31.683Z,65.60
2023-05-12T21:15:37.518Z,67.10
2023-05-12T21:20:42.825Z,67.90
2023-05-12T21:25:49.342Z,68.30
2023-05-12T21:30:54.556Z,68.60
2023-05-12T21:36:00.160Z,69.80
2023-05-12T21:41:05.549Z,70.20
2023-05-12T21:46:10.610Z,71.30
2023-05-12T21:51:16.069Z,72.50
2023-05-12T21:56:22.180Z,73.00
2023-05-12T22:01:27.564Z,73.80
2023-05-12T22:06:33.424Z,75.80
2023-05-12T22:11:38.763Z,76.30
2023-05-12T22:16:45.228Z,76.80
2023-05-12T22:21:50.601Z,77.70
2023-05-12T22:26:55.917Z,79.70
2023-05-12T22:32:01.432Z,80.80
2023-05-12T22:37:06.574Z,82.70
2023-05-12T22:42:11.766Z,83.50
2023-05-12T22:47:17.019Z,84.80
2023-05-12T22:52:22.464Z,86.50
2023-05-12T22:57:27.819Z,87.30
2023-05-12T23:02:33.030Z,88.00
2023-05-12T23:07:38.955Z,88.90
2023-05-12T23:12:44.097Z,89.80
2023-05-12T23:17:50.017Z,90.90
2023-05-12T23:22:55.333Z,91.60
2023-05-12T23:28:00.570Z,92.50
2023-05-12T23:33:06.121Z,93.40
2023-05-12T23:38:11.360Z,94.40
2023-05-12T23:43:20.526Z,96.30
2023-05-12T23:48:26.257Z,98.30
2023-05-12T23:53:31.526Z,99.90
2023-05-12T23:58:36.610Z,99.90
